Time;durP1;ratioP1;P1;durP2;ratioP2;P2;SDS_P1;SDS_P2;PMS_P1;PMS_P2;Temp;Humidity;BMP_temperature;BMP_pressure;BME280_temperature;BME280_humidity;BME280_pressure;Samples;Min_cycle;Max_cycle;Signal;HPM_P1;HPM_P2
2022/12/13 00:02:24;;;;;;;4.07;2.92;;;;;;;20.36;49.66;99914.50;20732451;28;20425;-79
2022/12/13 00:12:25;;;;;;;3.42;2.70;;;;;;;20.37;49.54;99919.63;20729565;28;20072;-79
2022/12/13 00:22:25;;;;;;;2.97;2.33;;;;;;;20.35;49.48;99920.72;20735816;28;20030;-79
2022/12/13 00:32:26;;;;;;;3.00;2.53;;;;;;;20.38;49.28;99923.13;20746064;28;20053;-79
2022/12/13 00:42:26;;;;;;;3.67;2.90;;;;;;;20.36;49.66;99922.41;20746990;28;20042;-79
2022/12/13 00:52:26;;;;;;;3.60;2.50;;;;;;;20.36;49.67;99931.13;20740735;28;20073;-79
2022/12/13 01:02:27;;;;;;;4.18;3.00;;;;;;;20.36;49.54;99944.28;20743401;28;20045;-78
2022/12/13 01:12:27;;;;;;;3.30;2.58;;;;;;;20.36;49.22;99940.81;20740594;28;20056;-78
2022/12/13 01:22:28;;;;;;;4.65;2.58;;;;;;;20.34;49.42;99953.25;20745522;28;20042;-79
2022/12/13 01:32:28;;;;;;;3.17;2.72;;;;;;;20.33;49.36;99946.31;20740949;28;20041;-78
2022/12/13 01:42:29;;;;;;;3.40;2.47;;;;;;;20.31;49.24;99954.31;20738450;28;20061;-78
2022/12/13 01:52:32;;;;;;;2.50;2.15;;;;;;;20.29;49.17;99959.69;20733138;28;20038;-79
2022/12/13 02:02:33;;;;;;;4.45;2.65;;;;;;;20.30;48.94;99971.06;20735078;28;20041;-78
2022/12/13 02:12:36;;;;;;;2.42;2.22;;;;;;;20.30;48.81;99968.44;20745082;28;20057;-79
2022/12/13 02:23:15;;;;;;;2.77;2.40;;;;;;;20.27;49.15;99972.13;20735987;28;20041;-78
2022/12/13 02:33:24;;;;;;;3.67;2.70;;;;;;;20.30;48.87;99971.91;20722910;28;20046;-79
2022/12/13 02:43:31;;;;;;;3.10;2.70;;;;;;;20.30;48.83;99978.97;20732943;28;20111;-77
2022/12/13 02:53:33;;;;;;;2.92;2.30;;;;;;;20.30;48.97;99969.25;20725626;28;20064;-78
2022/12/13 03:03:45;;;;;;;3.23;2.90;;;;;;;20.31;48.95;99967.47;20731012;28;20050;-78
2022/12/13 03:14:01;;;;;;;3.47;2.30;;;;;;;20.30;49.15;99976.34;20729441;28;20049;-78
2022/12/13 03:24:01;;;;;;;2.47;2.28;;;;;;;20.30;48.82;99979.78;20726324;28;20153;-78
2022/12/13 03:34:02;;;;;;;3.20;2.50;;;;;;;20.29;48.80;99982.53;20732965;28;20046;-79
2022/12/13 03:44:04;;;;;;;2.67;2.28;;;;;;;20.29;49.03;99980.75;20730647;28;20038;-79
2022/12/13 03:54:05;;;;;;;2.60;2.40;;;;;;;20.28;48.77;99992.22;20733206;28;20068;-79
2022/12/13 04:04:06;;;;;;;2.15;1.95;;;;;;;20.26;48.81;99999.41;20726659;28;20042;-79
2022/12/13 04:14:07;;;;;;;3.13;2.35;;;;;;;20.26;48.60;100006.44;20732799;28;20046;-78
2022/12/13 04:24:07;;;;;;;3.08;2.67;;;;;;;20.24;48.96;100005.75;20733566;28;20053;-79
2022/12/13 04:34:08;;;;;;;2.55;2.25;;;;;;;20.25;49.01;100007.38;20731013;28;20536;-79
2022/12/13 04:44:09;;;;;;;2.75;2.45;;;;;;;20.23;48.62;100009.31;20737631;28;20054;-79
2022/12/13 04:54:10;;;;;;;2.78;2.22;;;;;;;20.22;48.42;100008.47;20738857;28;20056;-78
2022/12/13 05:04:10;;;;;;;2.90;2.00;;;;;;;20.24;48.47;100009.19;20708468;28;20049;-79
2022/12/13 05:14:10;;;;;;;2.42;2.10;;;;;;;20.32;49.36;100008.56;20722383;28;20064;-77
2022/12/13 05:24:11;;;;;;;12.15;2.72;;;;;;;20.42;49.93;100006.91;20737483;28;20037;-83
2022/12/13 05:34:14;;;;;;;19.73;3.63;;;;;;;20.53;50.07;100008.66;20740041;28;20053;-77
2022/12/13 05:44:15;;;;;;;12.05;4.07;;;;;;;20.62;49.39;100015.81;20734719;28;20139;-79
2022/12/13 05:54:15;;;;;;;17.98;4.45;;;;;;;20.66;49.45;100010.31;20774894;28;20034;-84
2022/12/13 06:04:16;;;;;;;20.65;5.45;;;;;;;20.57;46.99;100025.03;20769188;28;20041;-86
2022/12/13 06:14:16;;;;;;;16.48;5.40;;;;;;;20.59;46.60;100028.38;20752624;28;20044;-77
2022/12/13 06:24:19;;;;;;;10.15;4.03;;;;;;;20.72;47.68;100028.25;20766456;28;20056;-78
2022/12/13 06:34:19;;;;;;;;;;;;;;;20.81;48.01;100045.91;20770210;28;20451;-78
2022/12/13 06:44:20;;;;;;;10.68;4.30;;;;;;;20.86;47.87;100054.28;20780434;28;19921;-80
2022/12/13 06:54:21;;;;;;;14.63;3.63;;;;;;;20.91;47.62;100057.38;20759204;28;20106;-85
2022/12/13 07:04:21;;;;;;;11.32;4.32;;;;;;;20.86;45.98;100064.81;20763202;28;20065;-84
2022/12/13 07:14:21;;;;;;;12.10;3.90;;;;;;;20.95;46.77;100077.19;20762710;28;20565;-85
2022/12/13 07:24:22;;;;;;;16.65;3.53;;;;;;;21.02;47.04;100074.91;20770545;28;20050;-84
2022/12/13 07:34:22;;;;;;;12.63;3.63;;;;;;;21.10;47.06;100090.94;20776488;28;20080;-85
2022/12/13 07:44:24;;;;;;;7.50;3.80;;;;;;;21.16;47.10;100094.03;20765059;28;20129;-85
2022/12/13 07:54:27;;;;;;;7.68;3.70;;;;;;;21.15;47.03;100092.34;20755337;28;20496;-85
2022/12/13 08:04:28;;;;;;;14.90;3.83;;;;;;;21.19;47.12;100102.50;20740654;28;20058;-86
2022/12/13 08:14:28;;;;;;;5.55;3.47;;;;;;;21.06;46.54;100113.19;20777501;28;20068;-84
2022/12/13 08:24:30;;;;;;;6.22;3.30;;;;;;;21.14;46.56;100109.09;20780781;28;20064;-84
2022/12/13 08:34:30;;;;;;;5.78;3.28;;;;;;;21.16;46.07;100118.53;20777527;28;20061;-84
2022/12/13 08:44:31;;;;;;;4.30;2.65;;;;;;;21.21;46.04;100116.34;20779337;28;20049;-83
2022/12/13 08:54:32;;;;;;;4.90;2.83;;;;;;;21.28;45.86;100119.34;20778754;28;20045;-82
2022/12/13 09:04:33;;;;;;;5.55;2.97;;;;;;;21.34;45.27;100118.00;20785642;28;20104;-85
2022/12/13 09:14:34;;;;;;;5.57;2.95;;;;;;;21.39;45.86;100106.09;20782623;28;20455;-84
2022/12/13 09:24:35;;;;;;;7.28;2.72;;;;;;;21.46;45.31;100101.19;20795176;28;20108;-84
2022/12/13 09:34:35;;;;;;;6.15;3.15;;;;;;;21.54;45.12;100103.16;20783552;28;20134;-83
2022/12/13 09:44:40;;;;;;;4.47;3.20;;;;;;;21.63;45.17;100089.28;20784661;28;20136;-83
2022/12/13 09:54:42;;;;;;;4.85;3.25;;;;;;;21.73;44.97;100086.69;20776570;28;20057;-83
2022/12/13 10:04:43;;;;;;;6.82;3.55;;;;;;;21.82;44.97;100087.72;20781047;28;20041;-82
2022/12/13 10:14:52;;;;;;;8.85;4.85;;;;;;;21.92;44.97;100080.66;20757224;28;21739;-85
2022/12/13 10:25:04;;;;;;;6.88;4.80;;;;;;;21.99;44.75;100073.09;20753217;28;20044;-86
2022/12/13 10:35:39;;;;;;;6.45;4.43;;;;;;;22.04;45.14;100055.06;20748197;28;20041;-85
2022/12/13 10:45:41;;;;;;;6.45;4.25;;;;;;;22.12;44.99;100047.34;20749808;28;20049;-84
2022/12/13 10:55:42;;;;;;;10.90;5.03;;;;;;;22.17;44.99;100045.13;20751974;28;20045;-86
2022/12/13 11:05:49;;;;;;;8.98;5.25;;;;;;;22.24;44.79;100045.44;20750265;28;20388;-84
2022/12/13 11:15:54;;;;;;;8.40;5.30;;;;;;;22.32;44.91;100037.66;20794555;28;20065;-86
2022/12/13 11:25:58;;;;;;;7.95;5.25;;;;;;;22.37;44.79;100027.56;20784981;28;20045;-85
2022/12/13 11:36:33;;;;;;;7.15;5.13;;;;;;;22.44;44.82;100014.69;20784679;28;20053;-86
2022/12/13 11:46:44;;;;;;;6.35;4.80;;;;;;;22.49;44.57;100017.75;20798571;28;20582;-89
2022/12/13 11:56:46;;;;;;;5.95;4.63;;;;;;;22.57;44.42;100010.94;20798479;28;20041;-89
2022/12/13 12:07:10;;;;;;;6.63;4.03;;;;;;;22.61;44.39;100007.91;20798301;28;20049;-90
2022/12/13 12:17:17;;;;;;;5.80;4.32;;;;;;;22.66;44.22;100013.59;20795927;28;20050;-90
2022/12/13 12:27:27;;;;;;;6.80;4.03;;;;;;;22.63;43.45;100019.16;20793996;28;20088;-81
2022/12/13 12:37:30;;;;;;;6.95;3.60;;;;;;;22.63;43.70;100000.69;20797227;28;20543;-82
2022/12/13 12:47:43;;;;;;;5.53;3.60;;;;;;;22.63;43.75;99992.78;20779321;28;20046;-81
2022/12/13 12:57:56;;;;;;;4.75;3.60;;;;;;;22.59;43.60;100007.19;20774536;28;20050;-82
2022/12/13 13:08:15;;;;;;;5.80;3.60;;;;;;;22.58;43.57;100015.25;20763915;28;20041;-81
2022/12/13 13:19:01;;;;;;;5.05;3.80;;;;;;;22.48;44.11;100021.34;20787159;28;20071;-81
2022/12/13 13:29:20;;;;;;;4.50;3.13;;;;;;;22.39;43.63;100030.09;20766174;28;20038;-82
2022/12/13 13:39:27;;;;;;;5.00;3.13;;;;;;;22.23;43.05;100039.31;20762895;28;20149;-82
2022/12/13 13:49:27;;;;;;;6.80;3.22;;;;;;;22.13;43.24;100043.72;20745375;28;20038;-82
2022/12/13 14:00:05;;;;;;;4.68;2.90;;;;;;;22.06;43.42;100050.50;20784610;28;20045;-82
2022/12/13 14:10:41;;;;;;;3.20;2.88;;;;;;;21.96;43.48;100041.69;20781671;28;20056;-80
2022/12/13 14:20:50;;;;;;;3.92;3.08;;;;;;;21.89;43.65;100049.31;20779437;28;20046;-81
2022/12/13 14:30:51;;;;;;;6.20;2.95;;;;;;;21.85;43.85;100040.84;20774300;28;20156;-80
2022/12/13 14:40:55;;;;;;;12.52;4.45;;;;;;;21.77;43.35;100053.84;20791433;28;20055;-80
2022/12/13 14:50:56;;;;;;;12.82;5.03;;;;;;;21.70;43.77;100050.03;20768547;28;20042;-83
2022/12/13 15:00:56;;;;;;;14.40;5.07;;;;;;;21.71;43.97;100051.72;20773732;28;20045;-83
2022/12/13 15:11:07;;;;;;;13.82;5.97;;;;;;;;;;20941800;28;20493;-83
2022/12/13 15:21:24;;;;;;;14.98;5.72;;;;;;;21.80;43.84;100079.09;20971343;28;20140;-80
2022/12/13 15:31:24;;;;;;;11.60;4.88;;;;;;;21.72;44.14;100079.75;20982262;28;20067;-80
2022/12/13 15:41:32;;;;;;;17.35;5.20;;;;;;;21.77;44.80;100096.00;20991219;28;20064;-79
2022/12/13 15:51:52;;;;;;;14.18;5.38;;;;;;;21.74;45.07;100094.47;20991521;28;20040;-80
2022/12/13 16:01:54;;;;;;;11.32;5.10;;;;;;;21.72;45.11;100101.66;20991711;27;20040;-79
2022/12/13 16:12:05;;;;;;;9.93;5.20;;;;;;;21.71;45.25;100114.97;20998007;28;20068;-80
2022/12/13 16:22:07;;;;;;;17.13;6.75;;;;;;;21.47;43.01;100121.31;20939223;28;20040;-81
2022/12/13 16:32:07;;;;;;;15.32;6.25;;;;;;;21.52;44.01;100107.72;20944903;28;20048;-81
2022/12/13 16:42:07;;;;;;;10.38;4.88;;;;;;;21.58;44.71;100110.72;20940845;28;20036;-82
2022/12/13 16:52:08;;;;;;;9.13;4.95;;;;;;;21.52;44.82;100124.38;20929555;28;20041;-84
2022/12/13 17:02:16;;;;;;;11.02;5.15;;;;;;;21.48;44.75;100106.31;20940525;28;20132;-83
2022/12/13 17:12:17;;;;;;;12.25;5.00;;;;;;;21.47;44.69;100096.75;20944627;28;20041;-82
2022/12/13 17:22:19;;;;;;;9.98;5.70;;;;;;;21.39;44.80;100106.09;20913930;28;20052;-80
2022/12/13 17:32:21;;;;;;;17.17;6.45;;;;;;;21.42;45.29;100120.81;20927628;28;20070;-81
2022/12/13 17:42:22;;;;;;;12.37;6.70;;;;;;;21.43;45.72;100125.13;20921152;28;20060;-85
2022/12/13 17:52:23;;;;;;;11.73;6.57;;;;;;;21.37;45.73;100117.75;20939270;28;20029;-85
2022/12/13 18:02:25;;;;;;;12.63;7.25;;;;;;;21.33;45.32;100130.31;20946113;28;20044;-83
2022/12/13 18:12:27;;;;;;;15.37;7.27;;;;;;;21.24;46.06;100117.94;20941357;28;20041;-80
2022/12/13 18:22:28;;;;;;;14.87;8.10;;;;;;;21.29;46.43;100102.59;20937187;28;20045;-80
2022/12/13 18:32:35;;;;;;;18.63;8.30;;;;;;;21.26;46.34;100108.94;20941987;28;20137;-81
2022/12/13 18:42:36;;;;;;;12.80;8.02;;;;;;;21.23;46.92;100124.97;20938007;28;20041;-82
2022/12/13 18:52:39;;;;;;;14.60;8.43;;;;;;;21.14;46.91;100132.78;20944249;28;20077;-81
2022/12/13 19:02:40;;;;;;;29.03;8.07;;;;;;;21.19;47.42;100122.72;20936889;28;20044;-78
2022/12/13 19:12:43;;;;;;;16.15;8.00;;;;;;;21.19;48.21;100113.03;20924417;28;20047;-78
2022/12/13 19:22:45;;;;;;;15.98;7.80;;;;;;;21.15;48.69;100124.75;20914597;28;20053;-78
2022/12/13 19:32:47;;;;;;;14.63;7.78;;;;;;;21.12;49.26;100122.41;20917969;28;20037;-78
2022/12/13 19:42:48;;;;;;;14.13;8.30;;;;;;;21.10;49.23;100119.91;20920148;28;20593;-78
2022/12/13 19:52:49;;;;;;;20.55;8.13;;;;;;;21.12;49.25;100130.28;20939717;28;20667;-83
2022/12/13 20:02:51;;;;;;;13.77;7.90;;;;;;;21.07;49.18;100124.56;20930401;28;20096;-80
2022/12/13 20:12:52;;;;;;;18.27;8.07;;;;;;;21.04;48.79;100124.81;20931110;28;20044;-80
2022/12/13 20:22:53;;;;;;;18.05;9.95;;;;;;;21.01;47.32;100133.78;20897536;28;20102;-81
2022/12/13 20:32:54;;;;;;;18.75;10.48;;;;;;;20.97;48.05;100137.63;20900418;28;20033;-79
2022/12/13 20:42:57;;;;;;;20.30;10.43;;;;;;;20.97;48.14;100135.00;20911937;28;20043;-80
2022/12/13 20:52:59;;;;;;;14.83;9.37;;;;;;;20.94;48.59;100146.59;20884875;28;20144;-79
2022/12/13 21:03:00;;;;;;;16.52;10.02;;;;;;;20.93;48.98;100142.31;20890570;28;20052;-79
2022/12/13 21:13:01;;;;;;;15.00;9.15;;;;;;;20.88;49.14;100139.19;20925756;28;20068;-79
2022/12/13 21:23:02;;;;;;;14.20;8.95;;;;;;;20.85;49.29;100131.56;20916224;28;20048;-79
2022/12/13 21:33:03;;;;;;;13.35;8.65;;;;;;;20.83;49.05;100124.75;20905635;28;20052;-80
2022/12/13 21:43:07;;;;;;;16.90;9.40;;;;;;;20.83;49.25;100104.50;20906588;28;20037;-80
2022/12/13 21:53:07;;;;;;;15.40;8.88;;;;;;;20.81;48.95;100106.44;20894446;28;20136;-78
2022/12/13 22:03:11;;;;;;;14.63;8.90;;;;;;;20.76;49.23;100111.22;20901200;28;22399;-79
2022/12/13 22:13:13;;;;;;;12.40;8.82;;;;;;;20.75;49.10;100104.28;20909075;28;20963;-79
2022/12/13 22:23:13;;;;;;;15.60;8.77;;;;;;;20.69;48.91;100104.75;20906829;28;20055;-79
2022/12/13 22:33:14;;;;;;;12.85;8.73;;;;;;;20.67;49.44;100083.00;20869236;28;20049;-77
2022/12/13 22:43:14;;;;;;;11.77;8.20;;;;;;;20.64;49.17;100087.53;20879477;28;20049;-77
2022/12/13 22:53:16;;;;;;;12.80;8.20;;;;;;;20.63;49.21;100072.72;20876810;28;20044;-81
2022/12/13 23:03:16;;;;;;;13.13;8.85;;;;;;;20.61;49.11;100071.16;20870783;28;20071;-79
2022/12/13 23:13:16;;;;;;;12.93;8.73;;;;;;;20.55;49.15;100069.84;20854559;28;20044;-76
2022/12/13 23:23:17;;;;;;;13.63;8.68;;;;;;;20.59;49.25;100062.56;20850639;28;20087;-80
2022/12/13 23:33:17;;;;;;;14.30;9.25;;;;;;;20.57;49.01;100059.25;20889611;28;20041;-78
2022/12/13 23:43:18;;;;;;;12.90;8.55;;;;;;;20.52;49.34;100058.75;20880902;28;20124;-77
2022/12/13 23:53:18;;;;;;;15.05;9.20;;;;;;;20.51;49.12;100059.69;20879814;28;20099;-77
